Observation data for Fluvanna on 12/08/2019      Previous  Date       Current Mesonet Observations  Soil Data  Daily Summary Page  Observations in Plain Language
KFVS 080600Z 18010KT 09/03 A3004 RMK A01 T00930028  RH  065%=      5-min Rain = 0
KFVS 080605Z 18010KT 09/03 A3004 RMK A01 T00920029  RH  066%=      5-min Rain = 0
KFVS 080610Z 18010KT 09/03 A3004 RMK A01 T00900028  RH  066%=      5-min Rain = 0
KFVS 080615Z 18010KT 09/03 A3003 RMK A01 T00870028  RH  067%=      5-min Rain = 0
KFVS 080620Z 18010KT 09/03 A3003 RMK A01 T00870028  RH  068%=      5-min Rain = 0
KFVS 080625Z 18010KT 09/03 A3003 RMK A01 T00860028  RH  068%=      5-min Rain = 0
KFVS 080630Z 18009KT 08/03 A3003 RMK A01 T00810026  RH  069%=      5-min Rain = 0
KFVS 080635Z 19009KT 08/03 A3002 RMK A01 T00790026  RH  070%=      5-min Rain = 0
KFVS 080640Z 19008KT 08/03 A3002 RMK A01 T00780026  RH  071%=      5-min Rain = 0
KFVS 080645Z 19008KT 08/03 A3002 RMK A01 T00770026  RH  071%=      5-min Rain = 0
KFVS 080650Z 19009KT 08/03 A3002 RMK A01 T00790027  RH  071%=      5-min Rain = 0
KFVS 080655Z 19009KT 08/03 A3002 RMK A01 T00810028  RH  070%=      5-min Rain = 0
KFVS 080700Z 19010KT 08/03 A3001 RMK A01 T00840028  RH  069%=      5-min Rain = 0
KFVS 080705Z 20009KT 09/03 A3001 RMK A01 T00850029  RH  069%=      5-min Rain = 0
KFVS 080710Z 19010KT 09/03 A3001 RMK A01 T00870029  RH  068%=      5-min Rain = 0
KFVS 080715Z 19010KT 09/03 A3001 RMK A01 T00870029  RH  068%=      5-min Rain = 0
KFVS 080720Z 19009KT 09/03 A30 RMK A01 T00860029  RH  068%=      5-min Rain = 0
KFVS 080725Z 19010KT 09/03 A30 RMK A01 T00850029  RH  069%=      5-min Rain = 0
KFVS 080730Z 19009KT 08/03 A30 RMK A01 T00830028  RH  069%=      5-min Rain = 0
KFVS 080735Z 20010KT 08/03 A30 RMK A01 T00820028  RH  070%=      5-min Rain = 0
KFVS 080740Z 20010KT 08/03 A30 RMK A01 T00810028  RH  070%=      5-min Rain = 0
KFVS 080745Z 20010KT 08/03 A2999 RMK A01 T00800028  RH  071%=      5-min Rain = 0
KFVS 080750Z 20010KT 08/03 A2999 RMK A01 T00800028  RH  071%=      5-min Rain = 0
KFVS 080755Z 21009KT 08/03 A2999 RMK A01 T00790028  RH  071%=      5-min Rain = 0
KFVS 080800Z 21009KT 08/03 A2999 RMK A01 T00780028  RH  072%=      5-min Rain = 0
KFVS 080805Z 20009KT 08/03 A2999 RMK A01 T00770028  RH  072%=      5-min Rain = 0
KFVS 080810Z 21009KT 08/03 A2998 RMK A01 T00790029  RH  072%=      5-min Rain = 0
KFVS 080815Z 20009KT 08/03 A2997 RMK A01 T00770028  RH  072%=      5-min Rain = 0
KFVS 080820Z 21009KT 08/03 A2998 RMK A01 T00780030  RH  073%=      5-min Rain = 0
KFVS 080825Z 21008KT 08/03 A2998 RMK A01 T00780030  RH  073%=      5-min Rain = 0
KFVS 080830Z 20008KT 08/03 A2998 RMK A01 T00790030  RH  072%=      5-min Rain = 0
KFVS 080835Z 21008KT 08/03 A2998 RMK A01 T00780030  RH  072%=      5-min Rain = 0
KFVS 080840Z 21009KT 08/03 A2998 RMK A01 T00770029  RH  073%=      5-min Rain = 0
KFVS 080845Z 21008KT 08/03 A2998 RMK A01 T00780029  RH  073%=      5-min Rain = 0
KFVS 080850Z 20007KT 08/03 A2998 RMK A01 T00760029  RH  073%=      5-min Rain = 0
KFVS 080855Z 20008KT 08/03 A2997 RMK A01 T00750029  RH  074%=      5-min Rain = 0
KFVS 080900Z 21008KT 07/03 A2998 RMK A01 T00740029  RH  074%=      5-min Rain = 0
KFVS 080905Z 21008KT 07/03 A2998 RMK A01 T00740029  RH  074%=      5-min Rain = 0
KFVS 080910Z 21007KT 07/03 A2998 RMK A01 T00730029  RH  075%=      5-min Rain = 0
KFVS 080915Z 22008KT 08/03 A2998 RMK A01 T00750030  RH  074%=      5-min Rain = 0
KFVS 080920Z 22009KT 08/03 A2998 RMK A01 T00770031  RH  074%=      5-min Rain = 0
KFVS 080925Z 21009KT 08/03 A2998 RMK A01 T00790031  RH  073%=      5-min Rain = 0
KFVS 080930Z 21008KT 08/03 A2997 RMK A01 T00790032  RH  074%=      5-min Rain = 0
KFVS 080935Z 22009KT 08/03 A2997 RMK A01 T00820033  RH  073%=      5-min Rain = 0
KFVS 080940Z 22010KT 09/03 A2997 RMK A01 T00850033  RH  071%=      5-min Rain = 0
KFVS 080945Z 22011KT 09/03 A2998 RMK A01 T00860034  RH  071%=      5-min Rain = 0
KFVS 080950Z 22012KT 09/03 A2997 RMK A01 T00890034  RH  070%=      5-min Rain = 0
KFVS 080955Z 22013KT 09/03 A2997 RMK A01 T00900034  RH  069%=      5-min Rain = 0
KFVS 081000Z 22012KT 09/03 A2997 RMK A01 T00890034  RH  069%=      5-min Rain = 0
KFVS 081005Z 22011KT 09/03 A2997 RMK A01 T00870034  RH  070%=      5-min Rain = 0
KFVS 081010Z 22012KT 09/04 A2997 RMK A01 T00880035  RH  071%=      5-min Rain = 0
KFVS 081015Z 22012KT 09/04 A2997 RMK A01 T00890035  RH  070%=      5-min Rain = 0
KFVS 081020Z 22013KT 09/04 A2997 RMK A01 T00900036  RH  070%=      5-min Rain = 0
KFVS 081025Z 22012KT 09/04 A2997 RMK A01 T00900035  RH  070%=      5-min Rain = 0
KFVS 081030Z 22012KT 09/04 A2997 RMK A01 T00900036  RH  070%=      5-min Rain = 0
KFVS 081035Z 22012KT 09/04 A2997 RMK A01 T00890035  RH  070%=      5-min Rain = 0
KFVS 081040Z 22012KT 09/04 A2997 RMK A01 T00890035  RH  070%=      5-min Rain = 0
KFVS 081045Z 22011KT 09/04 A2997 RMK A01 T00870035  RH  071%=      5-min Rain = 0
KFVS 081050Z 22011KT 09/04 A2997 RMK A01 T00870035  RH  071%=      5-min Rain = 0
KFVS 081055Z 21012KT 09/04 A2996 RMK A01 T00860036  RH  072%=      5-min Rain = 0
KFVS 081100Z 22011KT 09/04 A2996 RMK A01 T00880036  RH  071%=      5-min Rain = 0
KFVS 081105Z 22013KT 09/04 A2995 RMK A01 T00890036  RH  071%=      5-min Rain = 0
KFVS 081110Z 22012G18KT 09/04 A2995 RMK A01 T00900037  RH  070%=      5-min Rain = 0
KFVS 081115Z 22013G18KT 10/04 A2994 RMK A01 T00950037  RH  068%=      5-min Rain = 0
KFVS 081120Z 21014KT 10/04 A2994 RMK A01 T00950036  RH  068%=      5-min Rain = 0
KFVS 081125Z 22014KT 10/04 A2994 RMK A01 T00950036  RH  068%=      5-min Rain = 0
KFVS 081130Z 21012KT 10/04 A2994 RMK A01 T00950036  RH  068%=      5-min Rain = 0
KFVS 081135Z 21012G17KT 09/04 A2994 RMK A01 T00930035  RH  068%=      5-min Rain = 0
KFVS 081140Z 21013KT 09/04 A2994 RMK A01 T00920035  RH  069%=      5-min Rain = 0
KFVS 081145Z 21013KT 09/04 A2994 RMK A01 T00940035  RH  068%=      5-min Rain = 0
KFVS 081150Z 21011KT 09/03 A2994 RMK A01 T00910034  RH  069%=      5-min Rain = 0
KFVS 081155Z 21013KT 09/04 A2994 RMK A01 T00900035  RH  069%=      5-min Rain = 0
KFVS 081200Z 21012KT 09/03 A2994 RMK A01 T00910034  RH  069%=      5-min Rain = 0
KFVS 081205Z 21013KT 09/03 A2994 RMK A01 T00910034  RH  069%=      5-min Rain = 0
KFVS 081210Z 22012KT 09/03 A2994 RMK A01 T00900034  RH  069%=      5-min Rain = 0
KFVS 081215Z 22012KT 09/03 A2994 RMK A01 T00880034  RH  070%=      5-min Rain = 0
KFVS 081220Z 22012KT 09/03 A2994 RMK A01 T00870034  RH  071%=      5-min Rain = 0
KFVS 081225Z 22011KT 09/03 A2994 RMK A01 T00850033  RH  071%=      5-min Rain = 0
KFVS 081230Z 22010KT 08/03 A2994 RMK A01 T00810032  RH  073%=      5-min Rain = 0
KFVS 081235Z 22011KT 08/03 A2995 RMK A01 T00800033  RH  074%=      5-min Rain = 0
KFVS 081240Z 22011KT 08/03 A2995 RMK A01 T00800033  RH  073%=      5-min Rain = 0
KFVS 081245Z 22011KT 08/03 A2994 RMK A01 T00790032  RH  074%=      5-min Rain = 0
KFVS 081250Z 21011KT 08/03 A2994 RMK A01 T00790033  RH  074%=      5-min Rain = 0
KFVS 081255Z 22010KT 08/03 A2995 RMK A01 T00780032  RH  074%=      5-min Rain = 0
KFVS 081300Z 22011KT 08/03 A2994 RMK A01 T00790033  RH  074%=      5-min Rain = 0
KFVS 081305Z 22011KT 08/03 A2994 RMK A01 T00810033  RH  073%=      5-min Rain = 0
KFVS 081310Z 22011KT 08/03 A2994 RMK A01 T00820032  RH  072%=      5-min Rain = 0
KFVS 081315Z 22011KT 08/03 A2995 RMK A01 T00790032  RH  073%=      5-min Rain = 0
KFVS 081320Z 22011KT 08/03 A2994 RMK A01 T00790032  RH  074%=      5-min Rain = 0
KFVS 081325Z 22011KT 08/03 A2995 RMK A01 T00790032  RH  073%=      5-min Rain = 0
KFVS 081330Z 22011KT 08/03 A2995 RMK A01 T00790032  RH  073%=      5-min Rain = 0
KFVS 081335Z 22010KT 08/03 A2994 RMK A01 T00790032  RH  073%=      5-min Rain = 0
KFVS 081340Z 22011KT 08/03 A2994 RMK A01 T00800032  RH  073%=      5-min Rain = 0
KFVS 081345Z 22010KT 08/03 A2994 RMK A01 T00810032  RH  073%=      5-min Rain = 0
KFVS 081350Z 22011KT 08/03 A2994 RMK A01 T00820033  RH  072%=      5-min Rain = 0
KFVS 081355Z 22010KT 08/03 A2994 RMK A01 T00830032  RH  072%=      5-min Rain = 0
KFVS 081400Z 22010KT 08/03 A2994 RMK A01 T00820032  RH  072%=      5-min Rain = 0
KFVS 081405Z 22010KT 08/03 A2994 RMK A01 T00810032  RH  073%=      5-min Rain = 0
KFVS 081410Z 22010KT 08/03 A2994 RMK A01 T00810032  RH  073%=      5-min Rain = 0
KFVS 081415Z 22009KT 08/03 A2994 RMK A01 T00800032  RH  073%=      5-min Rain = 0
KFVS 081420Z 22010KT 08/03 A2994 RMK A01 T00800033  RH  073%=      5-min Rain = 0
KFVS 081425Z 23010KT 08/03 A2994 RMK A01 T00820033  RH  072%=      5-min Rain = 0
KFVS 081430Z 22010KT 09/03 A2994 RMK A01 T00850033  RH  071%=      5-min Rain = 0
KFVS 081435Z 22010KT 09/03 A2994 RMK A01 T00880034  RH  070%=      5-min Rain = 0
KFVS 081440Z 22010KT 09/03 A2994 RMK A01 T00910034  RH  069%=      5-min Rain = 0
KFVS 081445Z 21009KT 09/04 A2994 RMK A01 T00920035  RH  069%=      5-min Rain = 0
KFVS 081450Z 22010KT 09/04 A2994 RMK A01 T00920035  RH  069%=      5-min Rain = 0
KFVS 081455Z 23011KT 09/04 A2994 RMK A01 T00940035  RH  068%=      5-min Rain = 0
KFVS 081500Z 22010KT 09/04 A2995 RMK A01 T00930036  RH  069%=      5-min Rain = 0
KFVS 081505Z 22010KT 10/04 A2994 RMK A01 T00960037  RH  068%=      5-min Rain = 0
KFVS 081510Z 22010KT 10/04 A2994 RMK A01 T00960036  RH  068%=      5-min Rain = 0
KFVS 081515Z 22010KT 10/04 A2994 RMK A01 T00980037  RH  067%=      5-min Rain = 0
KFVS 081520Z 22010KT 10/04 A2993 RMK A01 T01010037  RH  066%=      5-min Rain = 0
KFVS 081525Z 23009KT 10/04 A2994 RMK A01 T01040039  RH  065%=      5-min Rain = 0
KFVS 081530Z 23010KT 11/04 A2994 RMK A01 T01080039  RH  064%=      5-min Rain = 0
KFVS 081535Z 23010KT 11/04 A2993 RMK A01 T01110039  RH  063%=      5-min Rain = 0
KFVS 081540Z 22010KT 11/04 A2993 RMK A01 T01120040  RH  062%=      5-min Rain = 0
KFVS 081545Z 22010KT 11/04 A2994 RMK A01 T01140040  RH  062%=      5-min Rain = 0
KFVS 081550Z 23011KT 12/04 A2994 RMK A01 T01170041  RH  061%=      5-min Rain = 0
KFVS 081555Z 23011KT 12/04 A2994 RMK A01 T01200042  RH  060%=      5-min Rain = 0
KFVS 081600Z 23011KT 13/04 A2994 RMK A01 T01250043  RH  058%=      5-min Rain = 0
KFVS 081605Z 23012KT 13/04 A2995 RMK A01 T01270042  RH  057%=      5-min Rain = 0
KFVS 081610Z 23012KT 13/04 A2994 RMK A01 T01300043  RH  057%=      5-min Rain = 0
KFVS 081615Z 23011KT 14/05 A2995 RMK A01 T01360045  RH  055%=      5-min Rain = 0
KFVS 081620Z 22011KT 14/05 A2994 RMK A01 T01390045  RH  054%=      5-min Rain = 0
KFVS 081625Z 23011KT 14/05 A2994 RMK A01 T01440045  RH  052%=      5-min Rain = 0
KFVS 081630Z 22011KT 15/05 A2993 RMK A01 T01450045  RH  052%=      5-min Rain = 0
KFVS 081635Z 21010KT 15/05 A2993 RMK A01 T01480045  RH  051%=      5-min Rain = 0
KFVS 081640Z 21009KT 15/05 A2992 RMK A01 T01520045  RH  050%=      5-min Rain = 0
KFVS 081645Z 22009KT 16/05 A2992 RMK A01 T01550045  RH  049%=      5-min Rain = 0
KFVS 081650Z 23011KT 16/05 A2992 RMK A01 T01590046  RH  048%=      5-min Rain = 0
KFVS 081655Z 22012KT 16/05 A2993 RMK A01 T01580045  RH  048%=      5-min Rain = 0
KFVS 081700Z 22011KT 16/05 A2992 RMK A01 T01600046  RH  048%=      5-min Rain = 0
KFVS 081705Z 22011KT 17/05 A2992 RMK A01 T01650047  RH  047%=      5-min Rain = 0
KFVS 081710Z 22010KT 17/05 A2992 RMK A01 T01680047  RH  046%=      5-min Rain = 0
KFVS 081715Z 21009KT 17/05 A2991 RMK A01 T01720048  RH  045%=      5-min Rain = 0
KFVS 081720Z 22012KT 18/05 A2991 RMK A01 T01780050  RH  044%=      5-min Rain = 0
KFVS 081725Z 22012KT 18/05 A2991 RMK A01 T01810050  RH  043%=      5-min Rain = 0
KFVS 081730Z 22011KT 18/05 A2991 RMK A01 T01830051  RH  042%=      5-min Rain = 0
KFVS 081735Z 21011KT 18/05 A2991 RMK A01 T01840051  RH  042%=      5-min Rain = 0
KFVS 081740Z 22011KT 19/05 A2991 RMK A01 T01890053  RH  042%=      5-min Rain = 0
KFVS 081745Z 23013KT 19/05 A2991 RMK A01 T01930053  RH  041%=      5-min Rain = 0
KFVS 081750Z 24014KT 20/05 A2991 RMK A01 T01950052  RH  040%=      5-min Rain = 0
KFVS 081755Z 24017KT 20/05 A299 RMK A01 T01960049  RH  039%=      5-min Rain = 0
KFVS 081800Z 25017G22KT 19/05 A299 RMK A01 T01940048  RH  039%=      5-min Rain = 0
KFVS 081805Z 25016G21KT 20/05 A299 RMK A01 T01950046  RH  038%=      5-min Rain = 0
KFVS 081810Z 24016KT 20/05 A2989 RMK A01 T01960047  RH  038%=      5-min Rain = 0
KFVS 081815Z 24016KT 20/05 A2989 RMK A01 T01970046  RH  038%=      5-min Rain = 0
KFVS 081820Z 24016KT 20/05 A2989 RMK A01 T01990047  RH  038%=      5-min Rain = 0
KFVS 081825Z 24016G22KT 20/05 A2988 RMK A01 T02000046  RH  037%=      5-min Rain = 0
KFVS 081830Z 24015KT 20/05 A2988 RMK A01 T01990047  RH  037%=      5-min Rain = 0
KFVS 081835Z 24016G21KT 20/05 A2987 RMK A01 T02010047  RH  037%=      5-min Rain = 0
KFVS 081840Z 24017KT 21/05 A2987 RMK A01 T02050046  RH  036%=      5-min Rain = 0
KFVS 081845Z 24015G20KT 21/05 A2987 RMK A01 T02070048  RH  036%=      5-min Rain = 0
KFVS 081850Z 24016KT 21/05 A2987 RMK A01 T02070048  RH  036%=      5-min Rain = 0
KFVS 081855Z 25015KT 21/05 A2987 RMK A01 T02070045  RH  035%=      5-min Rain = 0
KFVS 081900Z 24016G23KT 21/05 A2987 RMK A01 T02070046  RH  035%=      5-min Rain = 0
KFVS 081905Z 24016G21KT 21/05 A2986 RMK A01 T02060045  RH  035%=      5-min Rain = 0
KFVS 081910Z 25015KT 21/05 A2986 RMK A01 T02090047  RH  035%=      5-min Rain = 0
KFVS 081915Z 24015G20KT 21/05 A2985 RMK A01 T02100045  RH  035%=      5-min Rain = 0
KFVS 081920Z 24016KT 21/05 A2985 RMK A01 T02100046  RH  035%=      5-min Rain = 0
KFVS 081925Z 24015G23KT 21/05 A2985 RMK A01 T02100045  RH  034%=      5-min Rain = 0
KFVS 081930Z 24015KT 21/04 A2985 RMK A01 T02110044  RH  034%=      5-min Rain = 0
KFVS 081935Z 23012G17KT 21/05 A2985 RMK A01 T02110050  RH  036%=      5-min Rain = 0
KFVS 081940Z 24016KT 21/05 A2985 RMK A01 T02090046  RH  035%=      5-min Rain = 0
KFVS 081945Z 24016KT 21/05 A2985 RMK A01 T02060045  RH  035%=      5-min Rain = 0
KFVS 081950Z 24015KT 21/05 A2984 RMK A01 T02080045  RH  035%=      5-min Rain = 0
KFVS 081955Z 23015KT 21/05 A2984 RMK A01 T02100046  RH  035%=      5-min Rain = 0
KFVS 082000Z 23016KT 21/05 A2983 RMK A01 T02080045  RH  035%=      5-min Rain = 0
KFVS 082005Z 23016KT 21/05 A2983 RMK A01 T02070046  RH  036%=      5-min Rain = 0
KFVS 082010Z 24014KT 21/05 A2983 RMK A01 T02070047  RH  036%=      5-min Rain = 0
KFVS 082015Z 23016KT 21/05 A2983 RMK A01 T02090048  RH  035%=      5-min Rain = 0
KFVS 082020Z 24016KT 21/05 A2983 RMK A01 T02100047  RH  035%=      5-min Rain = 0
KFVS 082025Z 24019KT 21/05 A2983 RMK A01 T02120047  RH  035%=      5-min Rain = 0
KFVS 082030Z 24017G22KT 21/05 A2983 RMK A01 T02120048  RH  035%=      5-min Rain = 0
KFVS 082035Z 24019G24KT 21/05 A2983 RMK A01 T02110047  RH  035%=      5-min Rain = 0
KFVS 082040Z 24019G24KT 21/05 A2983 RMK A01 T02110048  RH  035%=      5-min Rain = 0
KFVS 082045Z 24020KT 21/05 A2983 RMK A01 T02100047  RH  035%=      5-min Rain = 0
KFVS 082050Z 25018KT 21/05 A2983 RMK A01 T02120049  RH  035%=      5-min Rain = 0
KFVS 082055Z 24019G24KT 21/05 A2982 RMK A01 T02130048  RH  035%=      5-min Rain = 0
KFVS 082100Z 24019G25KT 21/05 A2982 RMK A01 T02110047  RH  035%=      5-min Rain = 0
KFVS 082105Z 25020KT 21/05 A2982 RMK A01 T02130048  RH  035%=      5-min Rain = 0
KFVS 082110Z 24017G23KT 21/05 A2982 RMK A01 T02120048  RH  035%=      5-min Rain = 0
KFVS 082115Z 25019G24KT 21/05 A2982 RMK A01 T02120048  RH  035%=      5-min Rain = 0
KFVS 082120Z 24019KT 21/05 A2981 RMK A01 T02110047  RH  035%=      5-min Rain = 0
KFVS 082125Z 25017KT 21/05 A2982 RMK A01 T02110048  RH  035%=      5-min Rain = 0
KFVS 082130Z 25015G20KT 21/05 A2982 RMK A01 T02110048  RH  035%=      5-min Rain = 0
KFVS 082135Z 24017G23KT 21/05 A2982 RMK A01 T02090048  RH  035%=      5-min Rain = 0
KFVS 082140Z 25016G22KT 21/05 A2982 RMK A01 T02080048  RH  036%=      5-min Rain = 0
KFVS 082145Z 25018G24KT 21/05 A2982 RMK A01 T02080049  RH  036%=      5-min Rain = 0
KFVS 082150Z 25015KT 21/05 A2982 RMK A01 T02070050  RH  036%=      5-min Rain = 0
KFVS 082155Z 24016G22KT 21/05 A2982 RMK A01 T02070049  RH  036%=      5-min Rain = 0
KFVS 082200Z 24014KT 21/05 A2982 RMK A01 T02060051  RH  037%=      5-min Rain = 0
KFVS 082205Z 23013KT 21/05 A2982 RMK A01 T02060051  RH  037%=      5-min Rain = 0
KFVS 082210Z 23014KT 21/05 A2981 RMK A01 T02060051  RH  037%=      5-min Rain = 0
KFVS 082215Z 23014KT 21/05 A2981 RMK A01 T02050050  RH  037%=      5-min Rain = 0
KFVS 082220Z 23013G18KT 20/05 A2981 RMK A01 T02040050  RH  037%=      5-min Rain = 0
KFVS 082225Z 23012KT 20/05 A2981 RMK A01 T02030050  RH  038%=      5-min Rain = 0
KFVS 082230Z 23013G19KT 20/05 A298 RMK A01 T02020050  RH  038%=      5-min Rain = 0
KFVS 082235Z 23012KT 20/05 A298 RMK A01 T02000050  RH  038%=      5-min Rain = 0
KFVS 082240Z 23012KT 20/05 A2981 RMK A01 T02000050  RH  038%=      5-min Rain = 0
KFVS 082245Z 23011KT 20/05 A2981 RMK A01 T01990051  RH  039%=      5-min Rain = 0
KFVS 082250Z 22010KT 20/05 A2981 RMK A01 T01990050  RH  038%=      5-min Rain = 0
KFVS 082255Z 22010KT 20/05 A2981 RMK A01 T01970051  RH  039%=      5-min Rain = 0
KFVS 082300Z 22010KT 20/05 A2981 RMK A01 T01960051  RH  039%=      5-min Rain = 0
KFVS 082305Z 22011KT 20/05 A2981 RMK A01 T01950051  RH  040%=      5-min Rain = 0
KFVS 082310Z 22010KT 19/05 A2981 RMK A01 T01930051  RH  040%=      5-min Rain = 0
KFVS 082315Z 22011KT 19/05 A2981 RMK A01 T01920051  RH  040%=      5-min Rain = 0
KFVS 082320Z 22010KT 19/05 A2981 RMK A01 T01890051  RH  041%=      5-min Rain = 0
KFVS 082325Z 22010KT 19/05 A2981 RMK A01 T01870051  RH  042%=      5-min Rain = 0
KFVS 082330Z 23009KT 19/05 A2981 RMK A01 T01850051  RH  042%=      5-min Rain = 0
KFVS 082335Z 23009KT 18/05 A2981 RMK A01 T01810052  RH  043%=      5-min Rain = 0
KFVS 082340Z 23008KT 18/05 A2981 RMK A01 T01800051  RH  044%=      5-min Rain = 0
KFVS 082345Z 22007KT 18/05 A2981 RMK A01 T01750051  RH  045%=      5-min Rain = 0
KFVS 082350Z 22008KT 17/05 A2981 RMK A01 T01710052  RH  046%=      5-min Rain = 0
KFVS 082355Z 22008KT 17/05 A298 RMK A01 T01690052  RH  047%=      5-min Rain = 0
KFVS 090000Z 22008KT 17/05 A298 RMK A01 T01670052  RH  048%=      5-min Rain = 0
KFVS 090005Z 21007KT 17/05 A298 RMK A01 T01670052  RH  048%=      5-min Rain = 0
KFVS 090010Z 22006KT 17/05 A298 RMK A01 T01650052  RH  048%=      5-min Rain = 0
KFVS 090015Z 22007KT 17/05 A2981 RMK A01 T01660053  RH  048%=      5-min Rain = 0
KFVS 090020Z 22007KT 16/05 A298 RMK A01 T01610053  RH  050%=      5-min Rain = 0
KFVS 090025Z 22006KT 16/05 A298 RMK A01 T01600054  RH  050%=      5-min Rain = 0
KFVS 090030Z 22007KT 17/05 A2981 RMK A01 T01650053  RH  049%=      5-min Rain = 0
KFVS 090035Z 23006KT 17/05 A2981 RMK A01 T01700053  RH  047%=      5-min Rain = 0
KFVS 090040Z 22006KT 17/05 A2981 RMK A01 T01720052  RH  046%=      5-min Rain = 0
KFVS 090045Z 21006KT 17/05 A298 RMK A01 T01670052  RH  048%=      5-min Rain = 0
KFVS 090050Z 21007KT 17/05 A2981 RMK A01 T01650053  RH  048%=      5-min Rain = 0
KFVS 090055Z 22007KT 17/05 A2981 RMK A01 T01670053  RH  048%=      5-min Rain = 0
KFVS 090100Z 22009KT 17/05 A2981 RMK A01 T01710054  RH  047%=      5-min Rain = 0
KFVS 090105Z 22009KT 17/05 A2981 RMK A01 T01740053  RH  046%=      5-min Rain = 0
KFVS 090110Z 22009KT 17/05 A2981 RMK A01 T01720053  RH  046%=      5-min Rain = 0
KFVS 090115Z 23009KT 17/05 A2981 RMK A01 T01710053  RH  047%=      5-min Rain = 0
KFVS 090120Z 23009KT 17/05 A2981 RMK A01 T01700053  RH  047%=      5-min Rain = 0
KFVS 090125Z 23009KT 17/05 A2981 RMK A01 T01670053  RH  048%=      5-min Rain = 0
KFVS 090130Z 23009KT 16/05 A2981 RMK A01 T01630054  RH  050%=      5-min Rain = 0
KFVS 090135Z 23009G15KT 16/06 A2982 RMK A01 T01590055  RH  051%=      5-min Rain = 0
KFVS 090140Z 24012G17KT 17/06 A2982 RMK A01 T01670056  RH  049%=      5-min Rain = 0
KFVS 090145Z 24013KT 17/06 A2982 RMK A01 T01700055  RH  048%=      5-min Rain = 0
KFVS 090150Z 23012KT 17/06 A2982 RMK A01 T01680055  RH  048%=      5-min Rain = 0
KFVS 090155Z 24012KT 17/06 A2982 RMK A01 T01700056  RH  048%=      5-min Rain = 0
KFVS 090200Z 24013KT 17/06 A2982 RMK A01 T01740056  RH  047%=      5-min Rain = 0
KFVS 090205Z 24012KT 17/06 A2982 RMK A01 T01730056  RH  047%=      5-min Rain = 0
KFVS 090210Z 24011KT 17/06 A2983 RMK A01 T01720056  RH  047%=      5-min Rain = 0
KFVS 090215Z 23011KT 17/06 A2983 RMK A01 T01720056  RH  047%=      5-min Rain = 0
KFVS 090220Z 24011G16KT 17/06 A2983 RMK A01 T01730056  RH  047%=      5-min Rain = 0
KFVS 090225Z 25012KT 18/06 A2982 RMK A01 T01750055  RH  046%=      5-min Rain = 0
KFVS 090230Z 25013KT 17/06 A2983 RMK A01 T01740055  RH  046%=      5-min Rain = 0
KFVS 090235Z 25012KT 18/05 A2983 RMK A01 T01760054  RH  046%=      5-min Rain = 0
KFVS 090240Z 26015KT 18/05 A2983 RMK A01 T01800053  RH  044%=      5-min Rain = 0
KFVS 090245Z 26015KT 18/05 A2983 RMK A01 T01840053  RH  043%=      5-min Rain = 0
KFVS 090250Z 26014KT 18/05 A2983 RMK A01 T01830052  RH  043%=      5-min Rain = 0
KFVS 090255Z 26013KT 18/05 A2983 RMK A01 T01820052  RH  043%=      5-min Rain = 0
KFVS 090300Z 26012KT 18/05 A2982 RMK A01 T01790052  RH  044%=      5-min Rain = 0
KFVS 090305Z 25012KT 18/05 A2982 RMK A01 T01770052  RH  045%=      5-min Rain = 0
KFVS 090310Z 26012KT 18/05 A2982 RMK A01 T01760053  RH  045%=      5-min Rain = 0
KFVS 090315Z 26012KT 18/05 A2983 RMK A01 T01760053  RH  045%=      5-min Rain = 0
KFVS 090320Z 26012KT 17/05 A2983 RMK A01 T01740053  RH  046%=      5-min Rain = 0
KFVS 090325Z 26012KT 18/05 A2983 RMK A01 T01760052  RH  045%=      5-min Rain = 0
KFVS 090330Z 26011KT 17/05 A2983 RMK A01 T01730052  RH  046%=      5-min Rain = 0
KFVS 090335Z 27011G16KT 17/05 A2983 RMK A01 T01740053  RH  046%=      5-min Rain = 0
KFVS 090340Z 27010KT 17/05 A2983 RMK A01 T01740052  RH  046%=      5-min Rain = 0
KFVS 090345Z 28011KT 17/05 A2983 RMK A01 T01660053  RH  048%=      5-min Rain = 0
KFVS 090350Z 29010KT 16/05 A2984 RMK A01 T01600053  RH  050%=      5-min Rain = 0
KFVS 090355Z 29010KT 16/05 A2984 RMK A01 T01570054  RH  052%=      5-min Rain = 0
KFVS 090400Z 28010G15KT 16/06 A2984 RMK A01 T01570055  RH  052%=      5-min Rain = 0
KFVS 090405Z 29014KT 16/05 A2983 RMK A01 T01640054  RH  049%=      5-min Rain = 0
KFVS 090410Z 28015G22KT 17/05 A2983 RMK A01 T01680052  RH  047%=      5-min Rain = 0
KFVS 090415Z 28013KT 17/05 A2983 RMK A01 T01680051  RH  047%=      5-min Rain = 0
KFVS 090420Z 28013KT 17/05 A2983 RMK A01 T01660051  RH  048%=      5-min Rain = 0
KFVS 090425Z 28012KT 16/05 A2983 RMK A01 T01630051  RH  049%=      5-min Rain = 0
KFVS 090430Z 28011KT 16/05 A2984 RMK A01 T01600052  RH  050%=      5-min Rain = 0
KFVS 090435Z 28011KT 16/05 A2984 RMK A01 T01590053  RH  050%=      5-min Rain = 0
KFVS 090440Z 28010KT 16/05 A2984 RMK A01 T01570053  RH  051%=      5-min Rain = 0
KFVS 090445Z 28011KT 16/05 A2983 RMK A01 T01580053  RH  051%=      5-min Rain = 0
KFVS 090450Z 28010KT 16/05 A2983 RMK A01 T01570053  RH  051%=      5-min Rain = 0
KFVS 090455Z 28010KT 16/05 A2983 RMK A01 T01550052  RH  051%=      5-min Rain = 0
KFVS 090500Z 28010KT 15/05 A2983 RMK A01 T01540052  RH  052%=      5-min Rain = 0
KFVS 090505Z 28011KT 15/05 A2983 RMK A01 T01530052  RH  052%=      5-min Rain = 0
KFVS 090510Z 29011KT 15/05 A2983 RMK A01 T01520051  RH  052%=      5-min Rain = 0
KFVS 090515Z 29011KT 15/05 A2983 RMK A01 T01520051  RH  052%=      5-min Rain = 0
KFVS 090520Z 28012KT 15/05 A2983 RMK A01 T01520050  RH  051%=      5-min Rain = 0
KFVS 090525Z 29011KT 15/05 A2983 RMK A01 T01520048  RH  051%=      5-min Rain = 0
KFVS 090530Z 28012KT 15/05 A2983 RMK A01 T01520048  RH  051%=      5-min Rain = 0
KFVS 090535Z 28011KT 15/05 A2984 RMK A01 T01510048  RH  051%=      5-min Rain = 0
KFVS 090540Z 29013KT 15/05 A2983 RMK A01 T01530047  RH  050%=      5-min Rain = 0
KFVS 090545Z 29014KT 16/05 A2983 RMK A01 T01560046  RH  049%=      5-min Rain = 0
KFVS 090550Z 29014KT 16/05 A2983 RMK A01 T01560045  RH  049%=      5-min Rain = 0
KFVS 090555Z 28015KT 16/04 A2983 RMK A01 T01590044  RH  047%=      5-min Rain = 0

Page generated in 0.0092 seconds.